Time;durP1;ratioP1;P1;durP2;ratioP2;P2;SDS_P1;SDS_P2;PMS_P1;PMS_P2;Temp;Humidity;BMP_temperature;BMP_pressure;BME280_temperature;BME280_humidity;BME280_pressure;Samples;Min_cycle;Max_cycle;Signal;HPM_P1;HPM_P2
2022/02/18 00:02:31;;;;;;;10.73;3.40;;;12.00;29.70;;;;;;10522909;28;20234;-71
2022/02/18 00:07:34;;;;;;;14.13;3.73;;;12.10;29.70;;;;;;10526955;28;20224;-71
2022/02/18 00:12:39;;;;;;;11.40;3.10;;;12.10;29.70;;;;;;10524956;28;20219;-72
2022/02/18 00:17:42;;;;;;;9.97;2.93;;;12.10;29.70;;;;;;10520359;28;20254;-71
2022/02/18 00:22:45;;;;;;;12.77;3.10;;;12.10;29.70;;;;;;10525901;28;20722;-72
2022/02/18 00:27:50;;;;;;;8.50;3.20;;;12.10;29.70;;;;;;10522178;28;20224;-72
2022/02/18 00:32:53;;;;;;;12.90;3.47;;;12.00;29.70;;;;;;10524614;28;20227;-72
2022/02/18 00:37:56;;;;;;;11.03;3.80;;;12.00;29.70;;;;;;10522762;28;20238;-74
2022/02/18 00:43:01;;;;;;;13.23;3.10;;;12.10;29.70;;;;;;10525863;28;20619;-74
2022/02/18 00:48:05;;;;;;;8.90;2.90;;;12.10;29.70;;;;;;10517353;28;20672;-73
2022/02/18 00:53:08;;;;;;;11.23;3.43;;;12.00;29.70;;;;;;10522071;28;20220;-73
2022/02/18 00:58:13;;;;;;;14.70;3.60;;;12.00;29.70;;;;;;10520595;28;20273;-74
2022/02/18 01:03:16;;;;;;;10.47;3.10;;;12.00;29.70;;;;;;10522698;28;20696;-74
2022/02/18 01:08:19;;;;;;;11.73;3.30;;;12.00;29.70;;;;;;10522406;28;20238;-74
2022/02/18 01:13:24;;;;;;;11.87;3.13;;;11.90;29.60;;;;;;10522870;28;20298;-74
2022/02/18 01:18:27;;;;;;;10.73;3.50;;;11.90;29.60;;;;;;10521264;28;20228;-74
2022/02/18 01:23:31;;;;;;;12.27;3.40;;;11.90;29.60;;;;;;10523866;28;20226;-74
2022/02/18 01:28:35;;;;;;;9.97;3.10;;;11.80;29.60;;;;;;10519388;28;20230;-74
2022/02/18 01:33:38;;;;;;;9.70;2.83;;;11.90;29.60;;;;;;10524210;28;20296;-74
2022/02/18 01:38:42;;;;;;;9.97;3.10;;;11.90;29.60;;;;;;10520888;28;20236;-74
2022/02/18 01:43:51;;;;;;;10.43;3.10;;;11.80;29.50;;;;;;10521786;28;20610;-74
2022/02/18 01:48:56;;;;;;;10.60;3.10;;;11.80;29.50;;;;;;10520009;28;20228;-74
2022/02/18 01:53:59;;;;;;;12.13;3.30;;;11.80;29.50;;;;;;10521488;28;20588;-74
2022/02/18 01:59:05;;;;;;;8.23;2.90;;;11.80;29.50;;;;;;10521450;28;20235;-73
2022/02/18 02:04:09;;;;;;;11.60;3.30;;;11.90;29.60;;;;;;10519369;28;20230;-73
2022/02/18 02:09:12;;;;;;;12.67;3.10;;;11.90;29.60;;;;;;10520520;28;20250;-74
2022/02/18 02:14:17;;;;;;;11.23;2.73;;;11.90;29.70;;;;;;10519663;28;20246;-74
2022/02/18 02:19:20;;;;;;;9.40;2.80;;;11.90;29.60;;;;;;10519317;28;20242;-74
2022/02/18 02:24:25;;;;;;;8.63;2.63;;;11.90;29.60;;;;;;10521661;28;20589;-74
2022/02/18 02:29:28;;;;;;;11.77;2.90;;;11.90;29.60;;;;;;10518865;28;20246;-74
2022/02/18 02:34:33;;;;;;;9.67;3.30;;;11.90;29.60;;;;;;10521172;28;20224;-74
2022/02/18 02:39:38;;;;;;;6.97;2.67;;;11.90;29.60;;;;;;10517878;28;20224;-74
2022/02/18 02:44:41;;;;;;;8.60;2.70;;;11.90;29.60;;;;;;10518612;28;20233;-74
2022/02/18 02:49:44;;;;;;;11.67;3.00;;;11.90;29.70;;;;;;10519929;28;20228;-74
2022/02/18 02:54:49;;;;;;;10.07;2.70;;;11.90;29.60;;;;;;10519863;28;20232;-71
2022/02/18 02:59:52;;;;;;;8.13;2.50;;;11.90;29.60;;;;;;10521517;28;20211;-71
2022/02/18 03:04:55;;;;;;;9.13;2.83;;;11.90;29.60;;;;;;10520477;28;20229;-71
2022/02/18 03:10:00;;;;;;;11.57;2.73;;;11.80;29.50;;;;;;10522497;28;20228;-71
2022/02/18 03:15:04;;;;;;;9.50;2.87;;;11.70;29.50;;;;;;10521018;28;20314;-71
2022/02/18 03:20:09;;;;;;;9.17;2.93;;;11.70;29.50;;;;;;10521749;28;20524;-71
2022/02/18 03:25:14;;;;;;;8.17;2.50;;;11.60;29.80;;;;;;10518216;28;20726;-71
2022/02/18 03:30:17;;;;;;;10.07;2.87;;;11.60;30.00;;;;;;10525081;28;20319;-71
2022/02/18 03:35:21;;;;;;;10.53;2.83;;;11.50;30.00;;;;;;10527893;28;20778;-71
2022/02/18 03:40:25;;;;;;;10.40;4.83;;;11.50;30.20;;;;;;10528458;28;20234;-71
2022/02/18 03:45:29;;;;;;;10.57;3.10;;;11.50;30.40;;;;;;10526160;28;20243;-71
2022/02/18 03:50:32;;;;;;;8.80;2.67;;;11.40;30.30;;;;;;10529526;28;20215;-71
2022/02/18 03:55:38;;;;;;;7.77;2.50;;;11.50;30.40;;;;;;10523269;28;20232;-71
2022/02/18 04:00:42;;;;;;;10.40;2.80;;;11.50;30.60;;;;;;10526956;28;20594;-71
2022/02/18 04:05:45;;;;;;;9.80;2.60;;;11.50;30.60;;;;;;10524660;28;20227;-71
2022/02/18 04:10:49;;;;;;;11.27;2.60;;;11.50;30.60;;;;;;10526914;28;20230;-71
2022/02/18 04:15:53;;;;;;;8.73;2.43;;;11.50;30.90;;;;;;10527400;28;20707;-71
2022/02/18 04:20:56;;;;;;;10.63;2.67;;;11.50;30.90;;;;;;10527311;28;20590;-71
2022/02/18 04:26:13;;;;;;;5.70;2.40;;;11.60;31.10;;;;;;10524953;28;20304;-71
2022/02/18 04:31:17;;;;;;;8.23;2.37;;;11.60;31.10;;;;;;10523563;28;20230;-71
2022/02/18 04:36:20;;;;;;;9.83;3.10;;;11.60;31.10;;;;;;10526001;28;20700;-71
2022/02/18 04:41:25;;;;;;;8.77;2.80;;;11.60;31.10;;;;;;10526459;28;20233;-71
2022/02/18 04:46:28;;;;;;;6.93;2.50;;;11.70;31.30;;;;;;10526472;28;20593;-71
2022/02/18 04:51:31;;;;;;;9.33;2.70;;;11.70;31.20;;;;;;10523512;28;20581;-71
2022/02/18 04:56:36;;;;;;;11.83;3.50;;;11.70;31.20;;;;;;10523768;28;20219;-71
2022/02/18 05:01:39;;;;;;;11.33;4.23;;;11.80;31.30;;;;;;10524869;28;20238;-71
2022/02/18 05:06:42;;;;;;;11.17;4.13;;;11.80;31.10;;;;;;10523601;28;20231;-71
2022/02/18 05:11:47;;;;;;;11.03;3.50;;;11.80;31.30;;;;;;10521260;28;20532;-71
2022/02/18 05:16:50;;;;;;;6.83;2.67;;;11.80;31.30;;;;;;10524071;28;20227;-71
2022/02/18 05:21:53;;;;;;;10.07;3.60;;;11.80;31.10;;;;;;10523505;28;20220;-71
2022/02/18 05:26:58;;;;;;;9.17;3.40;;;11.90;31.30;;;;;;10521213;28;20232;-71
2022/02/18 05:32:01;;;;;;;8.03;4.60;;;11.90;31.30;;;;;;10520834;28;20742;-71
2022/02/18 05:37:04;;;;;;;7.10;3.03;;;11.90;31.30;;;;;;10520711;28;20230;-71
2022/02/18 05:42:09;;;;;;;9.40;2.90;;;12.00;31.50;;;;;;10522111;28;20215;-70
2022/02/18 05:47:12;;;;;;;12.37;3.63;;;12.00;31.50;;;;;;10521164;28;20231;-71
2022/02/18 05:52:15;;;;;;;9.10;2.97;;;12.00;31.50;;;;;;10521869;28;20237;-71
2022/02/18 05:57:20;;;;;;;8.80;2.53;;;11.90;31.40;;;;;;10522238;28;20216;-71
2022/02/18 06:02:23;;;;;;;9.07;2.57;;;12.00;31.60;;;;;;10517304;28;20224;-71
2022/02/18 06:07:26;;;;;;;7.97;2.60;;;12.00;31.50;;;;;;10522546;28;20730;-71
2022/02/18 06:12:31;;;;;;;9.27;2.70;;;12.00;31.50;;;;;;10518747;28;20223;-71
2022/02/18 06:17:37;;;;;;;9.53;3.00;;;12.00;31.60;;;;;;10517463;28;20234;-71
2022/02/18 06:22:40;;;;;;;12.83;3.20;;;12.00;31.50;;;;;;10522401;28;20228;-71
2022/02/18 06:27:45;;;;;;;9.77;3.23;;;12.00;31.60;;;;;;10519080;28;20597;-71
2022/02/18 06:32:48;;;;;;;9.00;2.90;;;12.00;31.80;;;;;;10520185;28;20783;-71
2022/02/18 06:37:51;;;;;;;9.97;3.50;;;11.90;31.70;;;;;;10520409;28;20265;-71
2022/02/18 06:42:56;;;;;;;9.40;3.63;;;11.80;31.90;;;;;;10521920;28;20749;-71
2022/02/18 06:47:59;;;;;;;9.10;3.50;;;11.80;32.30;;;;;;10519224;28;20231;-73
2022/02/18 06:53:02;;;;;;;9.17;3.13;;;11.70;32.10;;;;;;10519277;28;20219;-72
2022/02/18 06:58:07;;;;;;;8.53;3.07;;;11.70;32.30;;;;;;10519503;28;20659;-73
2022/02/18 07:03:10;;;;;;;8.90;2.90;;;11.80;32.50;;;;;;10523943;28;20223;-71
2022/02/18 07:08:13;;;;;;;9.67;3.20;;;11.80;32.40;;;;;;10527916;28;20223;-71
2022/02/18 07:13:19;;;;;;;8.50;3.23;;;11.90;32.50;;;;;;10527086;28;20250;-71
2022/02/18 07:18:23;;;;;;;8.60;3.20;;;11.90;32.60;;;;;;10526051;28;20231;-72
2022/02/18 07:23:26;;;;;;;9.43;3.30;;;11.90;32.50;;;;;;10528280;28;20226;-71
2022/02/18 07:28:30;;;;;;;12.03;3.33;;;11.90;32.50;;;;;;10524089;28;20228;-72
2022/02/18 07:33:33;;;;;;;9.83;4.10;;;11.90;32.70;;;;;;10527238;28;20708;-71
2022/02/18 07:38:36;;;;;;;8.63;2.80;;;11.90;32.50;;;;;;10525925;28;20228;-71
2022/02/18 07:43:41;;;;;;;7.60;2.57;;;11.90;32.60;;;;;;10526155;28;20246;-71
2022/02/18 07:48:44;;;;;;;8.63;3.17;;;11.80;32.80;;;;;;10524610;28;20227;-71
2022/02/18 07:53:47;;;;;;;9.87;2.70;;;11.80;32.60;;;;;;10526675;28;20220;-70
2022/02/18 07:58:52;;;;;;;8.77;2.77;;;11.90;32.80;;;;;;10526062;28;20554;-70
2022/02/18 08:03:56;;;;;;;9.97;3.00;;;11.90;33.10;;;;;;10523585;28;20516;-70
2022/02/18 08:08:59;;;;;;;7.47;2.70;;;11.90;33.00;;;;;;10523240;28;20223;-70
2022/02/18 08:14:04;;;;;;;7.47;3.07;;;11.90;33.10;;;;;;10522918;28;20218;-70
2022/02/18 08:19:07;;;;;;;8.80;3.07;;;11.90;33.30;;;;;;10524735;28;20223;-70
2022/02/18 08:24:15;;;;;;;7.63;3.13;;;11.90;33.20;;;;;;10524183;28;20231;-70
2022/02/18 08:29:21;;;;;;;13.47;3.33;;;12.00;33.30;;;;;;10522678;28;20227;-70
2022/02/18 08:34:25;;;;;;;6.70;2.70;;;12.00;33.50;;;;;;10524427;28;20231;-70
2022/02/18 08:39:28;;;;;;;9.50;3.03;;;12.00;33.20;;;;;;10521181;28;20742;-70
2022/02/18 08:44:32;;;;;;;9.47;3.43;;;12.10;33.30;;;;;;10524021;28;20223;-70
2022/02/18 08:49:40;;;;;;;12.13;3.63;;;12.10;33.80;;;;;;10520931;28;20223;-69
2022/02/18 08:54:43;;;;;;;9.13;3.43;;;12.10;33.80;;;;;;10516181;28;20226;-70
2022/02/18 08:59:47;;;;;;;9.17;3.07;;;12.10;33.80;;;;;;10519776;28;20234;-70
2022/02/18 09:04:50;;;;;;;11.43;3.90;;;12.10;34.50;;;;;;10517534;28;20224;-70
2022/02/18 09:09:54;;;;;;;12.13;3.87;;;12.10;34.30;;;;;;10520591;28;20228;-70
2022/02/18 09:15:04;;;;;;;9.97;3.40;;;12.10;34.50;;;;;;10521725;28;20306;-71
2022/02/18 09:20:08;;;;;;;8.83;2.93;;;12.10;35.10;;;;;;10520533;28;20228;-70
2022/02/18 09:25:12;;;;;;;8.57;2.70;;;12.10;35.00;;;;;;10521844;28;20227;-70
2022/02/18 09:30:17;;;;;;;7.10;2.87;;;12.10;35.00;;;;;;10519040;28;20223;-70
2022/02/18 09:35:40;;;;;;;7.63;2.63;;;12.10;35.40;;;;;;10520582;28;20220;-70
2022/02/18 09:40:44;;;;;;;7.70;2.53;;;12.20;35.20;;;;;;10519405;28;20235;-69
2022/02/18 09:45:50;;;;;;;7.90;2.83;;;12.20;35.30;;;;;;10522184;28;20219;-69
2022/02/18 09:50:53;;;;;;;6.70;2.20;;;12.30;35.90;;;;;;10521519;28;20230;-69
2022/02/18 09:55:56;;;;;;;8.23;2.67;;;12.30;35.50;;;;;;10520377;28;20230;-70
2022/02/18 10:01:02;;;;;;;7.70;2.87;;;12.40;35.60;;;;;;10518558;28;20560;-69
2022/02/18 10:06:05;;;;;;;7.93;2.40;;;12.40;36.10;;;;;;10514783;28;20222;-70
2022/02/18 10:11:09;;;;;;;7.53;2.30;;;12.50;35.80;;;;;;10519820;28;20232;-70
2022/02/18 10:16:15;;;;;;;7.27;2.57;;;12.50;35.90;;;;;;10518733;28;20727;-70
2022/02/18 10:21:20;;;;;;;9.20;2.77;;;12.50;36.40;;;;;;10519661;28;20681;-69
2022/02/18 10:26:37;;;;;;;8.53;2.40;;;12.50;36.00;;;;;;10519358;28;20227;-70
2022/02/18 10:31:42;;;;;;;8.47;2.67;;;12.50;37.00;;;;;;10518515;28;20722;-70
2022/02/18 10:36:46;;;;;;;6.73;2.30;;;12.60;36.50;;;;;;10518255;28;20227;-70
2022/02/18 10:41:57;;;;;;;7.80;2.67;;;12.60;36.20;;;;;;10520012;28;20707;-70
2022/02/18 10:47:05;;;;;;;6.40;2.47;;;12.70;36.30;;;;;;10518605;28;20770;-70
2022/02/18 10:52:13;;;;;;;6.13;2.60;;;12.80;36.60;;;;;;10520678;28;20322;-70
2022/02/18 10:57:18;;;;;;;5.33;2.30;;;12.90;36.40;;;;;;10517622;28;20703;-70
2022/02/18 11:07:50;;;;;;;6.10;2.10;;;13.00;36.20;;;;;;10436772;27;21030;-72
2022/02/18 11:12:56;;;;;;;5.07;2.23;;;13.20;36.70;;;;;;10393303;28;20243;-73
2022/02/18 11:17:59;;;;;;;7.37;2.37;;;13.30;36.80;;;;;;10385492;28;20230;-73
2022/02/18 11:23:04;;;;;;;5.70;2.37;;;13.50;36.60;;;;;;10387322;28;20241;-72
2022/02/18 11:28:07;;;;;;;4.53;2.00;;;13.60;36.50;;;;;;10383344;28;20268;-72
2022/02/18 11:33:24;;;;;;;3.90;2.00;;;13.70;36.00;;;;;;10397920;28;20231;-75
2022/02/18 11:38:51;;;;;;;6.27;2.10;;;13.80;36.20;;;;;;10383591;28;20244;-71
2022/02/18 11:43:56;;;;;;;3.70;1.73;;;14.00;36.20;;;;;;10364092;28;20240;-70
2022/02/18 11:49:01;;;;;;;3.27;1.77;;;14.10;35.60;;;;;;10394671;28;20226;-70
2022/02/18 11:54:05;;;;;;;4.27;1.90;;;14.20;35.50;;;;;;10394981;28;20225;-71
2022/02/18 11:59:09;;;;;;;6.77;1.83;;;14.30;35.40;;;;;;10387061;28;20226;-71
2022/02/18 12:04:16;;;;;;;2.37;1.67;;;14.50;35.30;;;;;;10393169;28;20226;-71
2022/02/18 12:09:52;;;;;;;4.13;1.90;;;14.60;35.20;;;;;;10388273;28;20232;-71
2022/02/18 12:14:57;;;;;;;2.13;1.63;;;14.70;35.00;;;;;;10388654;28;20758;-69
2022/02/18 12:20:10;;;;;;;3.23;1.53;;;14.80;34.80;;;;;;10361698;28;20230;-69
2022/02/18 12:25:24;;;;;;;2.93;1.90;;;14.90;34.80;;;;;;10363323;28;20231;-69
2022/02/18 12:30:55;;;;;;;5.87;2.77;;;15.00;34.40;;;;;;10358718;28;20234;-69
2022/02/18 12:35:58;;;;;;;4.33;1.83;;;15.10;34.40;;;;;;10360749;28;20233;-70
2022/02/18 12:41:04;;;;;;;2.50;1.73;;;15.20;34.60;;;;;;10358610;28;20226;-69
2022/02/18 12:46:07;;;;;;;3.13;1.50;;;15.20;34.40;;;;;;10356823;28;20226;-69
2022/02/18 12:51:17;;;;;;;2.87;1.80;;;15.30;34.40;;;;;;10360294;28;20231;-70
2022/02/18 12:56:23;;;;;;;3.93;1.90;;;15.30;34.00;;;;;;10360657;28;20244;-69
2022/02/18 13:01:27;;;;;;;4.07;1.87;;;15.30;34.30;;;;;;10363239;28;20606;-69
2022/02/18 13:06:32;;;;;;;5.47;1.73;;;15.40;34.40;;;;;;10361124;28;20233;-69
2022/02/18 13:11:38;;;;;;;2.47;1.47;;;15.40;34.20;;;;;;10362316;28;20234;-70
2022/02/18 13:16:47;;;;;;;3.13;1.50;;;15.50;34.10;;;;;;10368676;28;20232;-71
2022/02/18 13:21:51;;;;;;;2.57;1.43;;;15.50;34.20;;;;;;10364033;28;20310;-72
2022/02/18 13:26:55;;;;;;;2.87;1.70;;;15.50;34.10;;;;;;10361899;28;20226;-71
2022/02/18 13:31:58;;;;;;;2.67;1.90;;;15.50;33.90;;;;;;10363838;28;20627;-72
2022/02/18 13:37:02;;;;;;;2.17;1.73;;;15.60;34.00;;;;;;10360722;28;20510;-71
2022/02/18 13:42:10;;;;;;;3.90;2.60;;;15.60;33.80;;;;;;10361909;28;20226;-71
2022/02/18 13:47:14;;;;;;;2.03;1.67;;;15.60;33.50;;;;;;10361894;28;20233;-71
2022/02/18 13:52:17;;;;;;;2.83;1.80;;;15.60;33.50;;;;;;10360779;28;20735;-71
2022/02/18 13:57:30;;;;;;;3.10;1.40;;;15.60;33.20;;;;;;10361092;28;20241;-71
2022/02/18 14:02:35;;;;;;;3.70;1.70;;;15.60;33.20;;;;;;10362265;28;20214;-72
2022/02/18 14:07:38;;;;;;;1.63;1.30;;;15.60;33.20;;;;;;10363772;28;20230;-72
2022/02/18 14:12:46;;;;;;;3.37;1.43;;;15.60;33.10;;;;;;10360896;28;20222;-71
2022/02/18 14:17:49;;;;;;;2.77;1.77;;;15.60;32.70;;;;;;10358840;28;20280;-71
2022/02/18 14:22:57;;;;;;;3.37;1.63;;;15.60;33.10;;;;;;10360590;28;20248;-71
2022/02/18 14:28:12;;;;;;;2.13;1.40;;;15.60;32.90;;;;;;10358379;28;20230;-71
2022/02/18 14:33:22;;;;;;;1.60;1.30;;;15.60;32.70;;;;;;10363645;28;20217;-71
2022/02/18 14:38:26;;;;;;;1.57;1.40;;;15.60;32.90;;;;;;10356538;28;20230;-71
2022/02/18 14:43:30;;;;;;;2.77;1.77;;;15.60;33.30;;;;;;10353688;28;20729;-71
2022/02/18 14:48:34;;;;;;;4.87;2.07;;;15.60;33.10;;;;;;10338851;28;20230;-71
2022/02/18 14:53:37;;;;;;;3.50;2.07;;;15.60;33.20;;;;;;10349169;28;20227;-71
2022/02/18 14:58:41;;;;;;;3.13;2.10;;;15.70;33.00;;;;;;10342431;28;20599;-71
2022/02/18 15:03:44;;;;;;;4.93;1.50;;;15.80;32.80;;;;;;10350015;28;20225;-72
2022/02/18 15:08:48;;;;;;;3.03;1.60;;;15.90;32.90;;;;;;10344895;28;20242;-71
2022/02/18 15:13:52;;;;;;;6.43;4.57;;;15.90;32.90;;;;;;10345639;28;20230;-71
2022/02/18 15:18:55;;;;;;;3.97;2.17;;;16.00;33.00;;;;;;10348674;28;20805;-71
2022/02/18 15:23:58;;;;;;;6.03;3.13;;;16.10;33.10;;;;;;10352302;28;20596;-71
2022/02/18 15:29:03;;;;;;;3.13;2.53;;;16.10;33.10;;;;;;10333149;28;20218;-72
2022/02/18 15:44:59;;;;;;;9.20;3.20;;;16.30;32.90;;;;;;10303883;28;20782;-73
2022/02/18 15:50:04;;;;;;;3.33;2.40;;;16.30;32.40;;;;;;10357736;28;20240;-73
2022/02/18 15:55:09;;;;;;;2.83;1.70;;;16.30;32.50;;;;;;10364045;28;20227;-73
2022/02/18 16:00:19;;;;;;;2.63;1.63;;;16.40;32.40;;;;;;10350611;28;20237;-72
2022/02/18 16:05:23;;;;;;;1.97;1.63;;;16.40;32.20;;;;;;10367181;28;20230;-73
2022/02/18 16:10:27;;;;;;;4.67;1.60;;;16.40;32.50;;;;;;10363212;28;20245;-72
2022/02/18 16:15:31;;;;;;;3.10;1.60;;;16.40;32.20;;;;;;10370866;28;20725;-73
2022/02/18 16:20:34;;;;;;;4.10;1.60;;;16.40;32.20;;;;;;10355165;28;20237;-73
2022/02/18 16:25:38;;;;;;;4.63;1.80;;;16.50;32.20;;;;;;10347046;28;20234;-73
2022/02/18 16:30:43;;;;;;;7.07;1.80;;;16.50;32.20;;;;;;10371585;28;20226;-73
2022/02/18 16:35:46;;;;;;;6.20;1.60;;;16.60;32.00;;;;;;10354077;28;20846;-73
2022/02/18 16:40:50;;;;;;;6.13;1.90;;;16.70;32.10;;;;;;10366078;28;20218;-73
2022/02/18 16:45:55;;;;;;;1.60;1.50;;;16.80;32.00;;;;;;10358470;28;20350;-73
2022/02/18 16:51:01;;;;;;;6.20;1.50;;;16.90;31.80;;;;;;10344679;28;20877;-73
2022/02/18 16:56:04;;;;;;;4.10;1.50;;;17.00;31.80;;;;;;10364897;28;20304;-72
2022/02/18 17:01:10;;;;;;;5.10;2.30;;;17.00;31.80;;;;;;10365751;28;20249;-73
2022/02/18 17:06:13;;;;;;;4.07;2.10;;;17.00;31.70;;;;;;10365259;28;20340;-73
2022/02/18 17:11:17;;;;;;;4.37;1.80;;;17.00;31.80;;;;;;10365188;28;20230;-73
2022/02/18 17:16:22;;;;;;;2.17;1.37;;;17.00;31.50;;;;;;10363523;28;20237;-73
2022/02/18 17:21:26;;;;;;;4.40;1.63;;;17.10;31.50;;;;;;10362251;28;20819;-73
2022/02/18 17:26:29;;;;;;;7.77;1.90;;;17.10;31.60;;;;;;10362525;28;20230;-73
2022/02/18 17:31:35;;;;;;;4.50;1.80;;;17.10;31.60;;;;;;10364697;28;20217;-73
2022/02/18 17:36:38;;;;;;;3.77;1.80;;;17.10;31.20;;;;;;10364993;28;20639;-73
2022/02/18 17:41:41;;;;;;;5.20;2.17;;;17.10;31.50;;;;;;10368389;28;20230;-73
2022/02/18 17:46:46;;;;;;;4.10;1.87;;;17.10;31.30;;;;;;10363857;28;20237;-70
2022/02/18 17:51:49;;;;;;;3.93;1.83;;;17.10;31.20;;;;;;10365285;28;20225;-70
2022/02/18 17:56:52;;;;;;;5.20;1.90;;;17.10;31.30;;;;;;10367658;28;20226;-70
2022/02/18 18:01:57;;;;;;;3.00;1.70;;;17.10;31.30;;;;;;10360029;28;20223;-70
2022/02/18 18:07:00;;;;;;;2.90;1.50;;;17.10;31.00;;;;;;10363643;28;20226;-70
2022/02/18 18:12:04;;;;;;;3.10;1.60;;;17.20;31.20;;;;;;10360179;28;20695;-70
2022/02/18 18:17:09;;;;;;;3.47;1.60;;;17.20;31.00;;;;;;10361918;28;20231;-70
2022/02/18 18:22:12;;;;;;;2.83;1.60;;;17.20;30.90;;;;;;10361291;28;20222;-70
2022/02/18 18:27:15;;;;;;;3.20;1.40;;;17.20;31.00;;;;;;10363175;28;20592;-71
2022/02/18 18:32:20;;;;;;;2.30;1.37;;;17.20;31.00;;;;;;10352526;28;20882;-71
2022/02/18 18:37:23;;;;;;;4.50;1.70;;;17.30;30.90;;;;;;10350815;28;20245;-71
2022/02/18 18:42:26;;;;;;;3.37;1.30;;;17.30;30.90;;;;;;10354408;28;20230;-71
2022/02/18 18:47:31;;;;;;;3.33;1.43;;;17.30;31.00;;;;;;10355872;28;20226;-72
2022/02/18 18:52:38;;;;;;;1.83;1.60;;;17.30;30.80;;;;;;10355917;28;20226;-71
2022/02/18 18:57:41;;;;;;;2.40;1.33;;;17.30;30.90;;;;;;10353345;28;20229;-73
2022/02/18 19:02:46;;;;;;;2.53;1.40;;;17.30;30.80;;;;;;10360435;28;20229;-73
2022/02/18 19:07:49;;;;;;;2.60;1.40;;;17.30;30.80;;;;;;10364098;28;20234;-73
2022/02/18 19:12:52;;;;;;;2.73;1.40;;;17.30;30.90;;;;;;10363806;28;20222;-71
2022/02/18 19:17:57;;;;;;;4.80;1.87;;;17.30;30.90;;;;;;10360768;28;20264;-71
2022/02/18 19:23:06;;;;;;;5.17;1.63;;;17.30;30.60;;;;;;10361548;28;20237;-71
2022/02/18 19:28:10;;;;;;;2.73;1.50;;;17.30;30.80;;;;;;10366563;28;20253;-71
2022/02/18 19:33:14;;;;;;;3.13;1.33;;;17.30;30.90;;;;;;10371226;28;20237;-71
2022/02/18 19:38:18;;;;;;;2.50;1.37;;;17.30;30.80;;;;;;10367041;28;20233;-71
2022/02/18 19:43:23;;;;;;;1.40;1.30;;;17.30;30.80;;;;;;10369501;28;20226;-71
2022/02/18 19:48:28;;;;;;;1.80;1.40;;;17.30;30.80;;;;;;10361751;28;20222;-72
2022/02/18 19:53:31;;;;;;;2.97;1.30;;;17.30;30.70;;;;;;10360639;28;20725;-72
2022/02/18 19:58:37;;;;;;;1.20;1.00;;;17.30;30.60;;;;;;10358173;28;20704;-72
2022/02/18 20:03:42;;;;;;;0.60;0.60;;;17.30;30.70;;;;;;10358698;28;20222;-73
2022/02/18 20:08:46;;;;;;;0.60;0.60;;;17.10;29.70;;;;;;10363517;28;20875;-72
2022/02/18 20:13:49;;;;;;;0.50;0.50;;;16.50;29.50;;;;;;10356936;28;20595;-72
2022/02/18 20:18:53;;;;;;;1.23;0.67;;;15.70;29.70;;;;;;10356799;28;20604;-72
2022/02/18 20:23:58;;;;;;;0.80;0.60;;;15.00;29.70;;;;;;10356332;28;20222;-72
2022/02/18 20:29:01;;;;;;;0.67;0.63;;;14.60;29.70;;;;;;10352331;28;20377;-72
2022/02/18 20:34:06;;;;;;;0.60;0.60;;;14.00;29.60;;;;;;10360783;28;20263;-71
2022/02/18 20:39:11;;;;;;;1.03;0.80;;;13.60;30.00;;;;;;10356978;28;20242;-72
2022/02/18 20:44:14;;;;;;;1.03;0.80;;;13.30;30.10;;;;;;10364703;28;20242;-72
2022/02/18 20:49:19;;;;;;;0.80;0.70;;;13.10;30.40;;;;;;10360812;28;20694;-72
2022/02/18 20:54:25;;;;;;;1.57;0.70;;;12.90;30.30;;;;;;10359115;28;20230;-71
2022/02/18 20:59:29;;;;;;;0.67;0.67;;;12.80;30.20;;;;;;10360473;28;20240;-71
2022/02/18 21:04:33;;;;;;;1.30;0.90;;;12.70;30.10;;;;;;10363233;28;20234;-72
2022/02/18 21:09:36;;;;;;;0.73;0.70;;;12.60;30.00;;;;;;10369224;28;20596;-73
2022/02/18 21:14:40;;;;;;;1.20;0.80;;;12.50;30.00;;;;;;10363213;28;20226;-73
2022/02/18 21:19:44;;;;;;;1.00;0.70;;;12.30;29.90;;;;;;10361536;28;20222;-73
2022/02/18 21:24:48;;;;;;;0.67;0.67;;;12.30;29.90;;;;;;10361016;28;20358;-73
2022/02/18 21:29:51;;;;;;;0.73;0.70;;;12.20;29.80;;;;;;10359920;28;20241;-72
2022/02/18 21:34:56;;;;;;;1.97;0.70;;;12.20;29.80;;;;;;10358563;28;20226;-73
2022/02/18 21:39:59;;;;;;;0.60;0.60;;;12.20;29.80;;;;;;10359334;28;20251;-73
2022/02/18 21:45:09;;;;;;;0.90;0.60;;;12.10;29.70;;;;;;10358257;28;20743;-73
2022/02/18 21:50:13;;;;;;;0.60;0.60;;;12.10;29.70;;;;;;10360701;28;20226;-72
2022/02/18 21:55:16;;;;;;;0.93;0.73;;;12.00;29.70;;;;;;10360630;28;20230;-73
2022/02/18 22:00:22;;;;;;;1.43;0.90;;;12.00;29.70;;;;;;10360023;28;20226;-73
2022/02/18 22:05:36;;;;;;;1.03;0.80;;;11.90;29.60;;;;;;10358059;28;20232;-73
2022/02/18 22:10:40;;;;;;;1.40;0.80;;;11.90;30.10;;;;;;10359215;28;20234;-73
2022/02/18 22:15:43;;;;;;;1.13;0.70;;;12.00;30.20;;;;;;10367581;28;20238;-73
2022/02/18 22:20:49;;;;;;;1.30;0.80;;;12.00;29.70;;;;;;10359008;28;20721;-73
2022/02/18 22:25:53;;;;;;;0.97;0.80;;;11.90;29.60;;;;;;10360685;28;20304;-73
2022/02/18 22:30:56;;;;;;;1.57;1.00;;;11.90;29.60;;;;;;10359933;28;20706;-72
2022/02/18 22:36:01;;;;;;;1.33;0.70;;;11.90;29.60;;;;;;10362559;28;20236;-72
2022/02/18 22:41:05;;;;;;;1.90;0.77;;;11.90;29.60;;;;;;10363269;28;20234;-73
2022/02/18 22:46:08;;;;;;;1.47;1.10;;;11.80;29.50;;;;;;10363522;28;20232;-73
2022/02/18 22:51:13;;;;;;;2.47;1.50;;;11.70;29.50;;;;;;10369487;28;20626;-73
2022/02/18 22:56:16;;;;;;;1.73;1.10;;;11.60;29.60;;;;;;10370314;28;20229;-72
2022/02/18 23:01:21;;;;;;;2.00;1.33;;;11.70;29.50;;;;;;10362778;28;20619;-72
2022/02/18 23:06:25;;;;;;;2.70;1.40;;;11.60;29.50;;;;;;10368787;28;20240;-73
2022/02/18 23:11:29;;;;;;;3.27;1.50;;;11.60;29.70;;;;;;10355810;28;20231;-72
2022/02/18 23:16:32;;;;;;;2.40;1.40;;;11.60;29.70;;;;;;10368378;28;20253;-72
2022/02/18 23:21:43;;;;;;;2.90;1.13;;;11.60;29.70;;;;;;10361866;28;20321;-72
2022/02/18 23:26:46;;;;;;;2.30;1.00;;;11.50;29.70;;;;;;10369362;28;20238;-73
2022/02/18 23:31:51;;;;;;;3.43;1.07;;;11.50;29.80;;;;;;10370317;28;20226;-73
2022/02/18 23:36:56;;;;;;;2.00;1.10;;;11.50;29.80;;;;;;10362758;28;20592;-72
2022/02/18 23:41:59;;;;;;;2.37;1.10;;;11.50;29.60;;;;;;10363125;28;20222;-73
2022/02/18 23:47:02;;;;;;;4.07;1.40;;;11.50;29.70;;;;;;10360727;28;20229;-72
2022/02/18 23:52:07;;;;;;;2.60;1.00;;;11.50;29.60;;;;;;10361479;28;20230;-73
2022/02/18 23:57:11;;;;;;;3.20;1.03;;;11.60;29.40;;;;;;10362783;28;20226;-73
